sensor_id;sensor_type;location;lat;lon;timestamp;P1;durP1;ratioP1;P2;durP2;ratioP2
22660;SDS011;11497;52.222;21.246;2023-11-18T00:00:20;23.65;;;13.90;;
22660;SDS011;11497;52.222;21.246;2023-11-18T00:03:08;24.73;;;14.65;;
22660;SDS011;11497;52.222;21.246;2023-11-18T00:05:36;22.75;;;14.20;;
22660;SDS011;11497;52.222;21.246;2023-11-18T00:08:04;21.88;;;13.77;;
22660;SDS011;11497;52.222;21.246;2023-11-18T00:10:33;19.75;;;12.98;;
22660;SDS011;11497;52.222;21.246;2023-11-18T00:13:00;24.40;;;13.40;;
22660;SDS011;11497;52.222;21.246;2023-11-18T00:15:31;21.58;;;13.45;;
22660;SDS011;11497;52.222;21.246;2023-11-18T00:18:01;20.75;;;13.45;;
22660;SDS011;11497;52.222;21.246;2023-11-18T00:20:29;21.17;;;13.68;;
22660;SDS011;11497;52.222;21.246;2023-11-18T00:22:58;24.35;;;13.65;;
22660;SDS011;11497;52.222;21.246;2023-11-18T00:25:26;19.92;;;13.02;;
22660;SDS011;11497;52.222;21.246;2023-11-18T00:27:54;21.63;;;12.85;;
22660;SDS011;11497;52.222;21.246;2023-11-18T00:30:22;19.77;;;12.73;;
22660;SDS011;11497;52.222;21.246;2023-11-18T00:32:50;20.02;;;12.70;;
22660;SDS011;11497;52.222;21.246;2023-11-18T00:35:18;19.15;;;12.65;;
22660;SDS011;11497;52.222;21.246;2023-11-18T00:37:46;20.33;;;12.73;;
22660;SDS011;11497;52.222;21.246;2023-11-18T00:40:15;20.73;;;12.30;;
22660;SDS011;11497;52.222;21.246;2023-11-18T00:42:44;19.63;;;12.38;;
22660;SDS011;11497;52.222;21.246;2023-11-18T00:45:12;18.70;;;12.27;;
22660;SDS011;11497;52.222;21.246;2023-11-18T00:47:40;20.80;;;12.50;;
22660;SDS011;11497;52.222;21.246;2023-11-18T00:50:08;20.50;;;13.48;;
22660;SDS011;11497;52.222;21.246;2023-11-18T00:52:36;24.35;;;13.20;;
22660;SDS011;11497;52.222;21.246;2023-11-18T00:55:08;19.13;;;13.02;;
22660;SDS011;11497;52.222;21.246;2023-11-18T00:57:38;21.38;;;13.45;;
22660;SDS011;11497;52.222;21.246;2023-11-18T01:00:11;20.88;;;13.10;;
22660;SDS011;11497;52.222;21.246;2023-11-18T01:02:43;20.60;;;13.27;;
22660;SDS011;11497;52.222;21.246;2023-11-18T01:05:13;24.85;;;13.85;;
22660;SDS011;11497;52.222;21.246;2023-11-18T01:07:42;22.05;;;13.38;;
22660;SDS011;11497;52.222;21.246;2023-11-18T01:10:11;22.38;;;13.57;;
22660;SDS011;11497;52.222;21.246;2023-11-18T01:12:40;21.27;;;13.40;;
22660;SDS011;11497;52.222;21.246;2023-11-18T01:15:12;21.98;;;13.43;;
22660;SDS011;11497;52.222;21.246;2023-11-18T01:17:41;22.80;;;13.75;;
22660;SDS011;11497;52.222;21.246;2023-11-18T01:20:09;22.38;;;13.48;;
22660;SDS011;11497;52.222;21.246;2023-11-18T01:22:38;20.02;;;13.15;;
22660;SDS011;11497;52.222;21.246;2023-11-18T01:25:07;20.15;;;13.15;;
22660;SDS011;11497;52.222;21.246;2023-11-18T01:27:35;24.17;;;14.02;;
22660;SDS011;11497;52.222;21.246;2023-11-18T01:30:03;21.20;;;13.15;;
22660;SDS011;11497;52.222;21.246;2023-11-18T01:32:32;24.45;;;13.95;;
22660;SDS011;11497;52.222;21.246;2023-11-18T01:35:00;19.15;;;12.60;;
22660;SDS011;11497;52.222;21.246;2023-11-18T01:37:28;18.50;;;11.82;;
22660;SDS011;11497;52.222;21.246;2023-11-18T01:39:56;20.17;;;12.65;;
22660;SDS011;11497;52.222;21.246;2023-11-18T01:42:24;18.55;;;11.90;;
22660;SDS011;11497;52.222;21.246;2023-11-18T01:44:52;18.77;;;11.77;;
22660;SDS011;11497;52.222;21.246;2023-11-18T01:47:21;18.25;;;11.98;;
22660;SDS011;11497;52.222;21.246;2023-11-18T01:49:50;18.83;;;12.20;;
22660;SDS011;11497;52.222;21.246;2023-11-18T01:52:19;19.25;;;11.95;;
22660;SDS011;11497;52.222;21.246;2023-11-18T01:54:48;19.92;;;11.38;;
22660;SDS011;11497;52.222;21.246;2023-11-18T01:57:16;16.45;;;11.68;;
22660;SDS011;11497;52.222;21.246;2023-11-18T01:59:44;19.60;;;12.18;;
22660;SDS011;11497;52.222;21.246;2023-11-18T02:02:12;22.65;;;12.40;;
22660;SDS011;11497;52.222;21.246;2023-11-18T02:04:40;19.77;;;12.68;;
22660;SDS011;11497;52.222;21.246;2023-11-18T02:07:11;18.98;;;11.75;;
22660;SDS011;11497;52.222;21.246;2023-11-18T02:09:42;17.92;;;11.18;;
22660;SDS011;11497;52.222;21.246;2023-11-18T02:12:21;17.02;;;11.23;;
22660;SDS011;11497;52.222;21.246;2023-11-18T02:14:49;18.58;;;12.23;;
22660;SDS011;11497;52.222;21.246;2023-11-18T02:17:18;18.73;;;11.52;;
22660;SDS011;11497;52.222;21.246;2023-11-18T02:19:55;16.45;;;11.10;;
22660;SDS011;11497;52.222;21.246;2023-11-18T02:22:25;15.63;;;10.80;;
22660;SDS011;11497;52.222;21.246;2023-11-18T02:24:53;15.43;;;10.65;;
22660;SDS011;11497;52.222;21.246;2023-11-18T02:27:21;15.00;;;10.18;;
22660;SDS011;11497;52.222;21.246;2023-11-18T02:29:51;13.75;;;9.50;;
22660;SDS011;11497;52.222;21.246;2023-11-18T02:35:09;14.57;;;9.90;;
22660;SDS011;11497;52.222;21.246;2023-11-18T02:37:46;14.13;;;9.82;;
22660;SDS011;11497;52.222;21.246;2023-11-18T02:40:28;14.30;;;10.18;;
22660;SDS011;11497;52.222;21.246;2023-11-18T02:43:07;12.85;;;8.85;;
22660;SDS011;11497;52.222;21.246;2023-11-18T02:45:36;14.05;;;9.95;;
22660;SDS011;11497;52.222;21.246;2023-11-18T02:48:05;15.75;;;10.40;;
22660;SDS011;11497;52.222;21.246;2023-11-18T02:50:34;14.93;;;9.63;;
22660;SDS011;11497;52.222;21.246;2023-11-18T02:53:03;11.95;;;8.75;;
22660;SDS011;11497;52.222;21.246;2023-11-18T02:55:32;13.00;;;8.50;;
22660;SDS011;11497;52.222;21.246;2023-11-18T02:58:01;13.60;;;9.18;;
22660;SDS011;11497;52.222;21.246;2023-11-18T03:00:33;15.13;;;9.52;;
22660;SDS011;11497;52.222;21.246;2023-11-18T03:03:01;12.73;;;8.75;;
22660;SDS011;11497;52.222;21.246;2023-11-18T03:05:30;12.80;;;8.75;;
22660;SDS011;11497;52.222;21.246;2023-11-18T03:07:59;12.70;;;9.07;;
22660;SDS011;11497;52.222;21.246;2023-11-18T03:10:27;11.73;;;8.25;;
22660;SDS011;11497;52.222;21.246;2023-11-18T03:12:56;12.32;;;8.20;;
22660;SDS011;11497;52.222;21.246;2023-11-18T03:15:25;12.13;;;8.52;;
22660;SDS011;11497;52.222;21.246;2023-11-18T03:17:53;11.95;;;8.15;;
22660;SDS011;11497;52.222;21.246;2023-11-18T03:20:22;11.23;;;7.68;;
22660;SDS011;11497;52.222;21.246;2023-11-18T03:22:50;10.55;;;7.80;;
22660;SDS011;11497;52.222;21.246;2023-11-18T03:25:20;11.63;;;7.80;;
22660;SDS011;11497;52.222;21.246;2023-11-18T03:27:49;9.15;;;7.18;;
22660;SDS011;11497;52.222;21.246;2023-11-18T03:30:17;10.70;;;7.63;;
22660;SDS011;11497;52.222;21.246;2023-11-18T03:32:45;10.23;;;7.32;;
22660;SDS011;11497;52.222;21.246;2023-11-18T03:35:13;11.63;;;7.43;;
22660;SDS011;11497;52.222;21.246;2023-11-18T03:37:41;10.10;;;7.15;;
22660;SDS011;11497;52.222;21.246;2023-11-18T03:40:11;9.35;;;7.30;;
22660;SDS011;11497;52.222;21.246;2023-11-18T03:42:40;9.88;;;7.10;;
22660;SDS011;11497;52.222;21.246;2023-11-18T03:45:09;10.38;;;7.45;;
22660;SDS011;11497;52.222;21.246;2023-11-18T03:47:37;8.98;;;6.63;;
22660;SDS011;11497;52.222;21.246;2023-11-18T03:50:06;10.95;;;7.22;;
22660;SDS011;11497;52.222;21.246;2023-11-18T03:52:39;13.43;;;8.45;;
22660;SDS011;11497;52.222;21.246;2023-11-18T03:55:08;10.30;;;7.63;;
22660;SDS011;11497;52.222;21.246;2023-11-18T03:57:36;9.73;;;6.97;;
22660;SDS011;11497;52.222;21.246;2023-11-18T04:00:04;10.43;;;6.70;;
22660;SDS011;11497;52.222;21.246;2023-11-18T04:02:35;10.32;;;6.50;;
22660;SDS011;11497;52.222;21.246;2023-11-18T04:05:04;9.05;;;6.60;;
22660;SDS011;11497;52.222;21.246;2023-11-18T04:07:33;8.90;;;6.72;;
22660;SDS011;11497;52.222;21.246;2023-11-18T04:10:01;10.00;;;7.30;;
22660;SDS011;11497;52.222;21.246;2023-11-18T04:12:29;9.95;;;7.35;;
22660;SDS011;11497;52.222;21.246;2023-11-18T04:14:57;11.57;;;7.45;;
22660;SDS011;11497;52.222;21.246;2023-11-18T04:17:25;10.75;;;7.13;;
22660;SDS011;11497;52.222;21.246;2023-11-18T04:19:55;9.77;;;7.00;;
22660;SDS011;11497;52.222;21.246;2023-11-18T04:22:23;11.55;;;7.43;;
22660;SDS011;11497;52.222;21.246;2023-11-18T04:24:51;10.50;;;7.13;;
22660;SDS011;11497;52.222;21.246;2023-11-18T04:27:18;11.13;;;7.15;;
22660;SDS011;11497;52.222;21.246;2023-11-18T04:29:46;10.85;;;6.95;;
22660;SDS011;11497;52.222;21.246;2023-11-18T04:32:14;11.02;;;7.45;;
22660;SDS011;11497;52.222;21.246;2023-11-18T04:34:42;10.55;;;7.32;;
22660;SDS011;11497;52.222;21.246;2023-11-18T04:37:10;10.05;;;7.07;;
22660;SDS011;11497;52.222;21.246;2023-11-18T04:39:38;11.75;;;7.50;;
22660;SDS011;11497;52.222;21.246;2023-11-18T04:42:06;10.60;;;7.10;;
22660;SDS011;11497;52.222;21.246;2023-11-18T04:44:34;10.48;;;7.28;;
22660;SDS011;11497;52.222;21.246;2023-11-18T04:47:02;10.27;;;7.18;;
22660;SDS011;11497;52.222;21.246;2023-11-18T04:49:30;9.05;;;7.18;;
22660;SDS011;11497;52.222;21.246;2023-11-18T04:51:58;9.57;;;7.25;;
22660;SDS011;11497;52.222;21.246;2023-11-18T04:54:26;9.65;;;6.90;;
22660;SDS011;11497;52.222;21.246;2023-11-18T04:56:54;9.50;;;7.20;;
22660;SDS011;11497;52.222;21.246;2023-11-18T04:59:22;9.95;;;7.20;;
22660;SDS011;11497;52.222;21.246;2023-11-18T05:01:50;10.88;;;7.03;;
22660;SDS011;11497;52.222;21.246;2023-11-18T05:04:20;11.15;;;7.57;;
22660;SDS011;11497;52.222;21.246;2023-11-18T05:06:48;10.75;;;7.40;;
22660;SDS011;11497;52.222;21.246;2023-11-18T05:09:15;11.57;;;7.80;;
22660;SDS011;11497;52.222;21.246;2023-11-18T05:11:45;12.27;;;8.32;;
22660;SDS011;11497;52.222;21.246;2023-11-18T05:14:13;11.05;;;7.65;;
22660;SDS011;11497;52.222;21.246;2023-11-18T05:16:43;9.32;;;7.38;;
22660;SDS011;11497;52.222;21.246;2023-11-18T05:19:12;9.82;;;7.30;;
22660;SDS011;11497;52.222;21.246;2023-11-18T05:21:41;10.27;;;6.88;;
22660;SDS011;11497;52.222;21.246;2023-11-18T05:24:09;10.13;;;7.25;;
22660;SDS011;11497;52.222;21.246;2023-11-18T05:26:37;10.30;;;7.15;;
22660;SDS011;11497;52.222;21.246;2023-11-18T05:29:05;9.93;;;7.00;;
22660;SDS011;11497;52.222;21.246;2023-11-18T05:31:33;9.65;;;7.05;;
22660;SDS011;11497;52.222;21.246;2023-11-18T05:34:01;11.60;;;7.88;;
22660;SDS011;11497;52.222;21.246;2023-11-18T05:36:29;9.65;;;6.75;;
22660;SDS011;11497;52.222;21.246;2023-11-18T05:39:04;9.55;;;6.97;;
22660;SDS011;11497;52.222;21.246;2023-11-18T05:41:32;10.07;;;6.72;;
22660;SDS011;11497;52.222;21.246;2023-11-18T05:44:02;10.57;;;6.97;;
22660;SDS011;11497;52.222;21.246;2023-11-18T05:46:30;9.10;;;6.78;;
22660;SDS011;11497;52.222;21.246;2023-11-18T05:49:03;10.07;;;7.10;;
22660;SDS011;11497;52.222;21.246;2023-11-18T05:51:34;9.13;;;7.07;;
22660;SDS011;11497;52.222;21.246;2023-11-18T05:54:02;10.45;;;7.00;;
22660;SDS011;11497;52.222;21.246;2023-11-18T05:56:30;10.07;;;7.40;;
22660;SDS011;11497;52.222;21.246;2023-11-18T05:58:58;9.63;;;6.53;;
22660;SDS011;11497;52.222;21.246;2023-11-18T06:01:29;12.88;;;7.45;;
22660;SDS011;11497;52.222;21.246;2023-11-18T06:03:58;11.25;;;7.47;;
22660;SDS011;11497;52.222;21.246;2023-11-18T06:06:27;11.02;;;6.72;;
22660;SDS011;11497;52.222;21.246;2023-11-18T06:08:55;10.02;;;6.80;;
22660;SDS011;11497;52.222;21.246;2023-11-18T06:11:25;8.50;;;6.22;;
22660;SDS011;11497;52.222;21.246;2023-11-18T06:13:55;10.85;;;6.70;;
22660;SDS011;11497;52.222;21.246;2023-11-18T06:16:24;10.85;;;6.18;;
22660;SDS011;11497;52.222;21.246;2023-11-18T06:18:54;9.23;;;6.25;;
22660;SDS011;11497;52.222;21.246;2023-11-18T06:21:23;10.07;;;6.65;;
22660;SDS011;11497;52.222;21.246;2023-11-18T06:23:55;10.00;;;6.45;;
22660;SDS011;11497;52.222;21.246;2023-11-18T06:26:24;8.85;;;6.00;;
22660;SDS011;11497;52.222;21.246;2023-11-18T06:28:54;10.80;;;6.93;;
22660;SDS011;11497;52.222;21.246;2023-11-18T06:31:23;8.60;;;6.15;;
22660;SDS011;11497;52.222;21.246;2023-11-18T06:33:51;8.55;;;6.50;;
22660;SDS011;11497;52.222;21.246;2023-11-18T06:36:20;8.98;;;6.30;;
22660;SDS011;11497;52.222;21.246;2023-11-18T06:38:50;9.93;;;6.72;;
22660;SDS011;11497;52.222;21.246;2023-11-18T06:41:22;9.50;;;6.18;;
22660;SDS011;11497;52.222;21.246;2023-11-18T06:43:53;9.25;;;6.43;;
22660;SDS011;11497;52.222;21.246;2023-11-18T06:48:49;10.20;;;6.80;;
22660;SDS011;11497;52.222;21.246;2023-11-18T06:51:26;11.05;;;6.88;;
22660;SDS011;11497;52.222;21.246;2023-11-18T06:53:55;11.38;;;7.20;;
22660;SDS011;11497;52.222;21.246;2023-11-18T06:56:24;10.18;;;6.75;;
22660;SDS011;11497;52.222;21.246;2023-11-18T06:58:53;8.93;;;6.45;;
22660;SDS011;11497;52.222;21.246;2023-11-18T07:01:21;9.77;;;6.70;;
22660;SDS011;11497;52.222;21.246;2023-11-18T07:03:49;9.93;;;6.75;;
22660;SDS011;11497;52.222;21.246;2023-11-18T07:06:20;11.43;;;6.75;;
22660;SDS011;11497;52.222;21.246;2023-11-18T07:08:54;8.63;;;6.05;;
22660;SDS011;11497;52.222;21.246;2023-11-18T07:11:27;12.15;;;6.47;;
22660;SDS011;11497;52.222;21.246;2023-11-18T07:13:54;10.95;;;6.25;;
22660;SDS011;11497;52.222;21.246;2023-11-18T07:16:24;10.20;;;6.80;;
22660;SDS011;11497;52.222;21.246;2023-11-18T07:18:52;13.85;;;7.07;;
22660;SDS011;11497;52.222;21.246;2023-11-18T07:21:20;11.10;;;6.97;;
22660;SDS011;11497;52.222;21.246;2023-11-18T07:23:48;9.75;;;6.50;;
22660;SDS011;11497;52.222;21.246;2023-11-18T07:26:16;11.43;;;6.20;;
22660;SDS011;11497;52.222;21.246;2023-11-18T07:28:44;10.77;;;7.05;;
22660;SDS011;11497;52.222;21.246;2023-11-18T07:31:12;13.50;;;7.30;;
22660;SDS011;11497;52.222;21.246;2023-11-18T07:33:40;11.90;;;7.38;;
22660;SDS011;11497;52.222;21.246;2023-11-18T07:36:11;14.30;;;7.10;;
22660;SDS011;11497;52.222;21.246;2023-11-18T07:38:39;12.27;;;7.65;;
22660;SDS011;11497;52.222;21.246;2023-11-18T07:41:07;12.27;;;8.00;;
22660;SDS011;11497;52.222;21.246;2023-11-18T07:43:36;12.57;;;8.10;;
22660;SDS011;11497;52.222;21.246;2023-11-18T07:46:04;16.60;;;8.55;;
22660;SDS011;11497;52.222;21.246;2023-11-18T07:48:35;15.48;;;9.25;;
22660;SDS011;11497;52.222;21.246;2023-11-18T07:51:02;18.15;;;9.73;;
22660;SDS011;11497;52.222;21.246;2023-11-18T07:53:31;14.45;;;9.38;;
22660;SDS011;11497;52.222;21.246;2023-11-18T07:55:58;15.32;;;9.50;;
22660;SDS011;11497;52.222;21.246;2023-11-18T07:58:28;15.07;;;9.35;;
22660;SDS011;11497;52.222;21.246;2023-11-18T08:00:58;16.05;;;9.82;;
22660;SDS011;11497;52.222;21.246;2023-11-18T08:03:27;17.38;;;10.48;;
22660;SDS011;11497;52.222;21.246;2023-11-18T08:05:55;15.50;;;10.10;;
22660;SDS011;11497;52.222;21.246;2023-11-18T08:08:24;16.55;;;9.98;;
22660;SDS011;11497;52.222;21.246;2023-11-18T08:10:53;16.05;;;9.95;;
22660;SDS011;11497;52.222;21.246;2023-11-18T08:13:22;16.50;;;10.20;;
22660;SDS011;11497;52.222;21.246;2023-11-18T08:15:50;17.75;;;10.13;;
22660;SDS011;11497;52.222;21.246;2023-11-18T08:18:19;17.65;;;10.93;;
22660;SDS011;11497;52.222;21.246;2023-11-18T08:20:48;19.27;;;11.98;;
22660;SDS011;11497;52.222;21.246;2023-11-18T08:23:17;19.20;;;11.50;;
22660;SDS011;11497;52.222;21.246;2023-11-18T08:25:46;20.58;;;12.40;;
22660;SDS011;11497;52.222;21.246;2023-11-18T08:28:14;20.27;;;11.48;;
22660;SDS011;11497;52.222;21.246;2023-11-18T08:30:43;22.27;;;12.68;;
22660;SDS011;11497;52.222;21.246;2023-11-18T08:33:11;20.80;;;12.05;;
22660;SDS011;11497;52.222;21.246;2023-11-18T08:35:39;18.17;;;11.52;;
22660;SDS011;11497;52.222;21.246;2023-11-18T08:38:09;16.50;;;10.98;;
22660;SDS011;11497;52.222;21.246;2023-11-18T08:40:39;17.67;;;11.82;;
22660;SDS011;11497;52.222;21.246;2023-11-18T08:43:09;20.40;;;11.85;;
22660;SDS011;11497;52.222;21.246;2023-11-18T08:45:38;19.65;;;11.25;;
22660;SDS011;11497;52.222;21.246;2023-11-18T08:48:08;17.98;;;11.30;;
22660;SDS011;11497;52.222;21.246;2023-11-18T08:50:37;18.20;;;10.38;;
22660;SDS011;11497;52.222;21.246;2023-11-18T08:53:10;16.73;;;10.88;;
22660;SDS011;11497;52.222;21.246;2023-11-18T08:55:38;18.15;;;12.18;;
22660;SDS011;11497;52.222;21.246;2023-11-18T08:58:10;16.25;;;10.57;;
22660;SDS011;11497;52.222;21.246;2023-11-18T09:00:56;17.88;;;11.77;;
22660;SDS011;11497;52.222;21.246;2023-11-18T09:03:42;18.17;;;12.02;;
22660;SDS011;11497;52.222;21.246;2023-11-18T09:06:10;20.65;;;11.50;;
22660;SDS011;11497;52.222;21.246;2023-11-18T09:08:46;17.30;;;11.18;;
22660;SDS011;11497;52.222;21.246;2023-11-18T09:11:23;18.17;;;10.38;;
22660;SDS011;11497;52.222;21.246;2023-11-18T09:13:56;17.17;;;10.95;;
22660;SDS011;11497;52.222;21.246;2023-11-18T09:16:28;16.88;;;10.88;;
22660;SDS011;11497;52.222;21.246;2023-11-18T09:18:57;18.40;;;11.80;;
22660;SDS011;11497;52.222;21.246;2023-11-18T09:21:26;17.58;;;10.55;;
22660;SDS011;11497;52.222;21.246;2023-11-18T09:23:57;20.33;;;11.60;;
22660;SDS011;11497;52.222;21.246;2023-11-18T09:26:24;16.98;;;10.63;;
22660;SDS011;11497;52.222;21.246;2023-11-18T09:28:57;19.38;;;11.35;;
22660;SDS011;11497;52.222;21.246;2023-11-18T09:31:25;20.55;;;11.38;;
22660;SDS011;11497;52.222;21.246;2023-11-18T09:33:54;22.50;;;12.32;;
22660;SDS011;11497;52.222;21.246;2023-11-18T09:36:24;18.75;;;11.43;;
22660;SDS011;11497;52.222;21.246;2023-11-18T09:38:56;19.40;;;11.57;;
22660;SDS011;11497;52.222;21.246;2023-11-18T09:41:23;17.70;;;10.90;;
22660;SDS011;11497;52.222;21.246;2023-11-18T09:43:54;17.77;;;10.95;;
22660;SDS011;11497;52.222;21.246;2023-11-18T09:46:25;18.13;;;11.52;;
22660;SDS011;11497;52.222;21.246;2023-11-18T09:51:42;17.38;;;10.77;;
22660;SDS011;11497;52.222;21.246;2023-11-18T10:02:54;17.48;;;10.77;;
22660;SDS011;11497;52.222;21.246;2023-11-18T10:05:28;17.50;;;10.80;;
22660;SDS011;11497;52.222;21.246;2023-11-18T10:07:57;17.38;;;10.57;;
22660;SDS011;11497;52.222;21.246;2023-11-18T10:10:28;18.23;;;11.38;;
22660;SDS011;11497;52.222;21.246;2023-11-18T10:13:04;15.98;;;10.65;;
22660;SDS011;11497;52.222;21.246;2023-11-18T10:18:19;18.08;;;10.30;;
22660;SDS011;11497;52.222;21.246;2023-11-18T10:20:51;16.77;;;10.68;;
22660;SDS011;11497;52.222;21.246;2023-11-18T10:23:21;19.27;;;11.75;;
22660;SDS011;11497;52.222;21.246;2023-11-18T10:25:52;22.52;;;12.32;;
22660;SDS011;11497;52.222;21.246;2023-11-18T10:28:27;20.02;;;12.65;;
22660;SDS011;11497;52.222;21.246;2023-11-18T10:30:56;20.10;;;12.10;;
22660;SDS011;11497;52.222;21.246;2023-11-18T10:33:35;20.60;;;12.25;;
22660;SDS011;11497;52.222;21.246;2023-11-18T10:36:05;21.20;;;12.20;;
22660;SDS011;11497;52.222;21.246;2023-11-18T10:38:47;21.92;;;12.07;;
22660;SDS011;11497;52.222;21.246;2023-11-18T10:41:23;21.83;;;12.68;;
22660;SDS011;11497;52.222;21.246;2023-11-18T10:44:07;24.67;;;12.55;;
22660;SDS011;11497;52.222;21.246;2023-11-18T10:46:36;17.48;;;11.18;;
22660;SDS011;11497;52.222;21.246;2023-11-18T10:49:05;20.45;;;11.95;;
22660;SDS011;11497;52.222;21.246;2023-11-18T10:51:37;19.95;;;12.40;;
22660;SDS011;11497;52.222;21.246;2023-11-18T10:54:07;23.38;;;14.05;;
22660;SDS011;11497;52.222;21.246;2023-11-18T10:56:46;21.48;;;12.18;;
22660;SDS011;11497;52.222;21.246;2023-11-18T10:59:15;19.70;;;12.57;;
22660;SDS011;11497;52.222;21.246;2023-11-18T11:01:44;18.70;;;11.88;;
22660;SDS011;11497;52.222;21.246;2023-11-18T11:04:16;18.42;;;12.05;;
22660;SDS011;11497;52.222;21.246;2023-11-18T11:06:48;17.80;;;11.45;;
22660;SDS011;11497;52.222;21.246;2023-11-18T11:09:20;22.45;;;12.75;;
22660;SDS011;11497;52.222;21.246;2023-11-18T11:14:46;23.33;;;13.25;;
22660;SDS011;11497;52.222;21.246;2023-11-18T11:17:22;21.60;;;13.45;;
22660;SDS011;11497;52.222;21.246;2023-11-18T11:20:04;21.90;;;13.50;;
22660;SDS011;11497;52.222;21.246;2023-11-18T11:28:28;24.83;;;14.35;;
22660;SDS011;11497;52.222;21.246;2023-11-18T11:34:02;19.75;;;12.52;;
22660;SDS011;11497;52.222;21.246;2023-11-18T11:36:38;26.13;;;13.90;;
22660;SDS011;11497;52.222;21.246;2023-11-18T11:39:14;20.48;;;13.32;;
22660;SDS011;11497;52.222;21.246;2023-11-18T11:41:50;22.95;;;13.98;;
22660;SDS011;11497;52.222;21.246;2023-11-18T11:44:22;24.67;;;14.27;;
22660;SDS011;11497;52.222;21.246;2023-11-18T11:46:58;24.17;;;14.65;;
22660;SDS011;11497;52.222;21.246;2023-11-18T11:49:34;23.88;;;13.75;;
22660;SDS011;11497;52.222;21.246;2023-11-18T11:52:19;23.95;;;14.38;;
22660;SDS011;11497;52.222;21.246;2023-11-18T11:55:06;24.40;;;13.45;;
22660;SDS011;11497;52.222;21.246;2023-11-18T11:57:56;26.73;;;14.38;;
22660;SDS011;11497;52.222;21.246;2023-11-18T12:00:25;29.58;;;16.42;;
22660;SDS011;11497;52.222;21.246;2023-11-18T12:03:01;24.60;;;14.85;;
22660;SDS011;11497;52.222;21.246;2023-11-18T12:05:33;26.60;;;15.13;;
22660;SDS011;11497;52.222;21.246;2023-11-18T12:08:01;22.85;;;13.90;;
22660;SDS011;11497;52.222;21.246;2023-11-18T12:10:40;24.92;;;14.45;;
22660;SDS011;11497;52.222;21.246;2023-11-18T12:13:17;23.58;;;14.27;;
22660;SDS011;11497;52.222;21.246;2023-11-18T12:15:47;21.50;;;13.75;;
22660;SDS011;11497;52.222;21.246;2023-11-18T12:18:21;21.58;;;12.90;;
22660;SDS011;11497;52.222;21.246;2023-11-18T12:20:54;21.73;;;13.20;;
22660;SDS011;11497;52.222;21.246;2023-11-18T12:23:23;24.77;;;13.75;;
22660;SDS011;11497;52.222;21.246;2023-11-18T12:25:53;26.10;;;14.77;;
22660;SDS011;11497;52.222;21.246;2023-11-18T12:28:32;24.25;;;13.10;;
22660;SDS011;11497;52.222;21.246;2023-11-18T12:31:04;24.45;;;14.27;;
22660;SDS011;11497;52.222;21.246;2023-11-18T12:41:48;22.60;;;13.27;;
22660;SDS011;11497;52.222;21.246;2023-11-18T12:44:37;24.52;;;13.88;;
22660;SDS011;11497;52.222;21.246;2023-11-18T12:47:26;22.42;;;13.13;;
22660;SDS011;11497;52.222;21.246;2023-11-18T12:49:57;23.10;;;13.63;;
22660;SDS011;11497;52.222;21.246;2023-11-18T12:52:27;25.95;;;13.60;;
22660;SDS011;11497;52.222;21.246;2023-11-18T12:54:55;27.55;;;14.77;;
22660;SDS011;11497;52.222;21.246;2023-11-18T12:57:26;21.85;;;13.25;;
22660;SDS011;11497;52.222;21.246;2023-11-18T12:59:59;21.08;;;13.25;;
22660;SDS011;11497;52.222;21.246;2023-11-18T13:02:27;21.63;;;12.90;;
22660;SDS011;11497;52.222;21.246;2023-11-18T13:04:59;25.42;;;14.13;;
22660;SDS011;11497;52.222;21.246;2023-11-18T13:07:32;23.75;;;14.60;;
22660;SDS011;11497;52.222;21.246;2023-11-18T13:10:00;24.85;;;14.00;;
22660;SDS011;11497;52.222;21.246;2023-11-18T13:12:28;23.73;;;13.75;;
22660;SDS011;11497;52.222;21.246;2023-11-18T13:14:56;24.08;;;14.32;;
22660;SDS011;11497;52.222;21.246;2023-11-18T13:17:24;22.63;;;14.10;;
22660;SDS011;11497;52.222;21.246;2023-11-18T13:19:54;24.65;;;14.30;;
22660;SDS011;11497;52.222;21.246;2023-11-18T13:22:25;23.75;;;14.57;;
22660;SDS011;11497;52.222;21.246;2023-11-18T13:25:11;27.52;;;14.93;;
22660;SDS011;11497;52.222;21.246;2023-11-18T13:27:41;22.90;;;13.88;;
22660;SDS011;11497;52.222;21.246;2023-11-18T13:30:09;23.98;;;14.57;;
22660;SDS011;11497;52.222;21.246;2023-11-18T13:32:41;24.25;;;14.68;;
22660;SDS011;11497;52.222;21.246;2023-11-18T13:35:10;23.45;;;14.43;;
22660;SDS011;11497;52.222;21.246;2023-11-18T13:37:47;25.33;;;15.27;;
22660;SDS011;11497;52.222;21.246;2023-11-18T13:40:16;27.42;;;15.77;;
22660;SDS011;11497;52.222;21.246;2023-11-18T13:42:45;28.67;;;15.27;;
22660;SDS011;11497;52.222;21.246;2023-11-18T13:45:13;28.38;;;16.08;;
22660;SDS011;11497;52.222;21.246;2023-11-18T13:48:02;29.23;;;17.50;;
22660;SDS011;11497;52.222;21.246;2023-11-18T13:50:30;28.33;;;15.55;;
22660;SDS011;11497;52.222;21.246;2023-11-18T13:53:01;30.73;;;17.23;;
22660;SDS011;11497;52.222;21.246;2023-11-18T13:55:28;29.92;;;16.85;;
22660;SDS011;11497;52.222;21.246;2023-11-18T13:57:59;29.42;;;17.45;;
22660;SDS011;11497;52.222;21.246;2023-11-18T14:00:27;32.45;;;17.98;;
22660;SDS011;11497;52.222;21.246;2023-11-18T14:02:58;34.92;;;18.42;;
22660;SDS011;11497;52.222;21.246;2023-11-18T14:05:28;33.00;;;17.50;;
22660;SDS011;11497;52.222;21.246;2023-11-18T14:07:59;29.70;;;17.75;;
22660;SDS011;11497;52.222;21.246;2023-11-18T14:10:36;36.42;;;19.98;;
22660;SDS011;11497;52.222;21.246;2023-11-18T14:13:08;34.00;;;19.95;;
22660;SDS011;11497;52.222;21.246;2023-11-18T14:15:40;32.58;;;17.80;;
22660;SDS011;11497;52.222;21.246;2023-11-18T14:18:11;31.52;;;17.50;;
22660;SDS011;11497;52.222;21.246;2023-11-18T14:20:41;28.70;;;17.58;;
22660;SDS011;11497;52.222;21.246;2023-11-18T14:23:09;29.63;;;16.92;;
22660;SDS011;11497;52.222;21.246;2023-11-18T14:25:38;34.03;;;19.73;;
22660;SDS011;11497;52.222;21.246;2023-11-18T14:28:06;32.00;;;17.80;;
22660;SDS011;11497;52.222;21.246;2023-11-18T14:30:37;37.50;;;20.50;;
22660;SDS011;11497;52.222;21.246;2023-11-18T14:33:05;33.83;;;18.23;;
22660;SDS011;11497;52.222;21.246;2023-11-18T14:35:36;33.58;;;18.02;;
22660;SDS011;11497;52.222;21.246;2023-11-18T14:38:05;33.78;;;19.45;;
22660;SDS011;11497;52.222;21.246;2023-11-18T14:40:35;32.38;;;17.80;;
22660;SDS011;11497;52.222;21.246;2023-11-18T14:43:03;33.08;;;19.65;;
22660;SDS011;11497;52.222;21.246;2023-11-18T14:45:31;35.85;;;18.85;;
22660;SDS011;11497;52.222;21.246;2023-11-18T14:47:59;36.67;;;19.73;;
22660;SDS011;11497;52.222;21.246;2023-11-18T14:50:27;106.82;;;43.65;;
22660;SDS011;11497;52.222;21.246;2023-11-18T14:52:55;75.40;;;34.63;;
22660;SDS011;11497;52.222;21.246;2023-11-18T14:55:28;46.22;;;24.38;;
22660;SDS011;11497;52.222;21.246;2023-11-18T14:57:57;34.95;;;21.05;;
22660;SDS011;11497;52.222;21.246;2023-11-18T15:00:24;36.15;;;18.45;;
22660;SDS011;11497;52.222;21.246;2023-11-18T15:02:54;33.08;;;19.23;;
22660;SDS011;11497;52.222;21.246;2023-11-18T15:05:26;35.80;;;19.55;;
22660;SDS011;11497;52.222;21.246;2023-11-18T15:07:55;35.47;;;18.60;;
22660;SDS011;11497;52.222;21.246;2023-11-18T15:10:26;33.20;;;18.30;;
22660;SDS011;11497;52.222;21.246;2023-11-18T15:12:55;34.53;;;19.27;;